createdAt,value
2023-05-07T00:00:00.032Z,2.10
2023-05-07T00:00:59.998Z,2.10
2023-05-07T00:01:59.980Z,2.10
2023-05-07T00:03:00.013Z,2.00
2023-05-07T00:04:00.151Z,2.10
2023-05-07T00:04:59.973Z,2.40
2023-05-07T00:05:59.882Z,1.90
2023-05-07T00:06:59.850Z,2.20
2023-05-07T00:07:59.938Z,2.00
2023-05-07T00:08:59.813Z,2.20
2023-05-07T00:09:59.782Z,2.20
2023-05-07T00:10:59.754Z,1.80
2023-05-07T00:11:59.732Z,2.00
2023-05-07T00:12:59.754Z,2.00
2023-05-07T00:13:59.684Z,2.00
2023-05-07T00:14:59.657Z,2.10
2023-05-07T00:15:59.638Z,2.10
2023-05-07T00:16:59.688Z,2.20
2023-05-07T00:17:59.634Z,2.30
2023-05-07T00:18:59.560Z,1.90
2023-05-07T00:19:59.528Z,2.10
2023-05-07T00:20:59.505Z,1.80
2023-05-07T00:21:59.509Z,2.10
2023-05-07T00:22:59.456Z,2.20
2023-05-07T00:23:59.627Z,2.20
2023-05-07T00:24:59.416Z,2.20
2023-05-07T00:25:59.382Z,2.20
2023-05-07T00:26:59.373Z,2.20
2023-05-07T00:27:59.337Z,2.10
2023-05-07T00:28:59.308Z,2.20
2023-05-07T00:29:59.294Z,2.10
2023-05-07T00:30:59.269Z,2.20
2023-05-07T00:31:59.301Z,2.40
2023-05-07T00:32:59.249Z,2.20
2023-05-07T00:33:59.191Z,2.30
2023-05-07T00:34:59.161Z,2.50
2023-05-07T00:35:59.145Z,2.10
2023-05-07T00:36:59.115Z,2.20
2023-05-07T00:37:59.089Z,2.20
2023-05-07T00:38:59.062Z,2.20
2023-05-07T00:39:59.148Z,2.10
2023-05-07T00:40:59.017Z,2.30
2023-05-07T00:41:58.990Z,2.60
2023-05-07T00:42:59.233Z,2.30
2023-05-07T00:43:58.960Z,2.20
2023-05-07T00:44:58.914Z,2.30
2023-05-07T00:45:58.936Z,2.10
2023-05-07T00:46:58.900Z,2.20
2023-05-07T00:47:58.856Z,2.40
2023-05-07T00:48:58.818Z,2.40
2023-05-07T00:49:58.793Z,2.20
2023-05-07T00:50:58.772Z,2.40
2023-05-07T00:51:58.746Z,2.00
2023-05-07T00:52:58.719Z,2.30
2023-05-07T00:53:58.707Z,2.20
2023-05-07T00:54:58.666Z,2.50
2023-05-07T00:55:58.740Z,2.50
2023-05-07T00:56:58.639Z,2.60
2023-05-07T00:57:58.596Z,2.40
2023-05-07T00:58:58.611Z,2.20
2023-05-07T00:59:58.562Z,2.40
2023-05-07T01:00:58.556Z,2.20
2023-05-07T01:01:58.516Z,2.60
2023-05-07T01:02:58.543Z,2.40
2023-05-07T01:03:58.465Z,2.30
2023-05-07T01:04:58.420Z,2.40
2023-05-07T01:05:58.400Z,2.60
2023-05-07T01:06:58.392Z,2.50
2023-05-07T01:07:58.348Z,2.50
2023-05-07T01:08:58.337Z,2.60
2023-05-07T01:09:58.322Z,2.40
2023-05-07T01:10:58.336Z,2.50
2023-05-07T01:11:58.343Z,2.60
2023-05-07T01:12:58.271Z,2.50
2023-05-07T01:13:58.199Z,2.60
2023-05-07T01:14:58.176Z,2.40
2023-05-07T01:15:58.149Z,2.50
2023-05-07T01:16:58.208Z,2.60
2023-05-07T01:17:58.161Z,2.70
2023-05-07T01:18:58.124Z,2.50
2023-05-07T01:19:58.052Z,2.50
2023-05-07T01:20:58.024Z,2.80
2023-05-07T01:21:58.006Z,2.90
2023-05-07T01:22:57.979Z,2.80
2023-05-07T01:23:57.955Z,2.40
2023-05-07T01:24:57.927Z,2.60
2023-05-07T01:25:57.900Z,2.50
2023-05-07T01:26:57.893Z,2.50
2023-05-07T01:27:57.941Z,2.30
2023-05-07T01:28:57.827Z,2.40
2023-05-07T01:29:57.817Z,2.70
2023-05-07T01:30:57.799Z,2.60
2023-05-07T01:31:57.786Z,2.70
2023-05-07T01:32:57.775Z,2.60
2023-05-07T01:33:57.708Z,2.40
2023-05-07T01:34:57.673Z,2.30
2023-05-07T01:35:57.651Z,2.80
2023-05-07T01:36:57.625Z,2.60
2023-05-07T01:37:57.598Z,2.50
2023-05-07T01:38:57.570Z,2.50
2023-05-07T01:39:57.558Z,2.50
2023-05-07T01:40:57.524Z,2.50
2023-05-07T01:41:57.501Z,2.40
2023-05-07T01:42:57.477Z,2.60
2023-05-07T01:43:57.466Z,3.00
2023-05-07T01:44:57.414Z,2.90
2023-05-07T01:45:57.431Z,2.50
2023-05-07T01:46:57.367Z,2.90
2023-05-07T01:47:57.361Z,2.70
2023-05-07T01:48:57.317Z,2.40
2023-05-07T01:49:57.292Z,2.70
2023-05-07T01:50:57.269Z,2.50
2023-05-07T01:51:57.241Z,2.70
2023-05-07T01:52:57.217Z,2.80
2023-05-07T01:53:57.192Z,2.80
2023-05-07T01:54:57.171Z,2.80
2023-05-07T01:55:57.138Z,2.70
2023-05-07T01:56:57.112Z,2.80
2023-05-07T01:57:57.088Z,2.60
2023-05-07T01:58:57.060Z,3.00
2023-05-07T01:59:57.056Z,2.80
2023-05-07T02:00:57.010Z,2.90
2023-05-07T02:01:57.082Z,3.00
2023-05-07T02:02:57.046Z,3.20
2023-05-07T02:03:56.998Z,2.70
2023-05-07T02:04:56.909Z,2.50
2023-05-07T02:05:56.892Z,2.90
2023-05-07T02:06:56.860Z,2.90
2023-05-07T02:07:56.843Z,2.90
2023-05-07T02:08:56.805Z,3.10
2023-05-07T02:09:56.782Z,3.10
2023-05-07T02:10:56.753Z,3.00
2023-05-07T02:11:56.737Z,2.70
2023-05-07T02:12:56.736Z,2.60
2023-05-07T02:13:56.705Z,3.00
2023-05-07T02:14:56.657Z,2.60
2023-05-07T02:15:56.796Z,2.70
2023-05-07T02:16:56.663Z,2.90
2023-05-07T02:17:56.618Z,2.80
2023-05-07T02:18:56.563Z,2.90
2023-05-07T02:19:56.534Z,2.90
2023-05-07T02:20:56.504Z,2.80
2023-05-07T02:21:56.482Z,3.00
2023-05-07T02:22:56.454Z,3.30
2023-05-07T02:23:56.427Z,3.30
2023-05-07T02:24:56.409Z,3.00
2023-05-07T02:25:56.381Z,3.10
2023-05-07T02:26:56.353Z,3.20
2023-05-07T02:27:56.326Z,3.10
2023-05-07T02:28:56.304Z,2.90
2023-05-07T02:29:56.279Z,3.20
2023-05-07T02:30:56.250Z,3.40
2023-05-07T02:31:56.337Z,3.20
2023-05-07T02:32:56.256Z,3.30
2023-05-07T02:33:56.178Z,3.20
2023-05-07T02:34:56.149Z,3.50
2023-05-07T02:35:56.127Z,3.20
2023-05-07T02:36:56.102Z,3.70
2023-05-07T02:37:56.076Z,3.50
2023-05-07T02:38:56.050Z,3.60
2023-05-07T02:39:56.025Z,3.70
2023-05-07T02:40:55.999Z,3.60
2023-05-07T02:41:55.973Z,3.70
2023-05-07T02:42:55.946Z,4.00
2023-05-07T02:43:55.923Z,4.10
2023-05-07T02:44:55.900Z,3.70
2023-05-07T02:45:55.941Z,3.90
2023-05-07T02:46:55.845Z,3.90
2023-05-07T02:47:55.963Z,4.40
2023-05-07T02:48:55.814Z,4.30
2023-05-07T02:49:55.763Z,4.20
2023-05-07T02:50:55.745Z,4.20
2023-05-07T02:51:55.715Z,3.80
2023-05-07T02:52:55.688Z,4.00
2023-05-07T02:53:55.678Z,4.40
2023-05-07T02:54:55.638Z,4.70
2023-05-07T02:55:55.613Z,4.20
2023-05-07T02:56:55.588Z,3.90
2023-05-07T02:57:55.559Z,4.40
2023-05-07T02:58:55.541Z,4.10
2023-05-07T02:59:55.508Z,4.40
2023-05-07T03:00:55.566Z,4.00
2023-05-07T03:01:55.459Z,4.30
2023-05-07T03:02:55.482Z,4.20
2023-05-07T03:03:55.490Z,4.00
2023-05-07T03:04:55.388Z,4.10
2023-05-07T03:05:55.368Z,4.40
2023-05-07T03:06:55.327Z,4.20
2023-05-07T03:07:55.300Z,4.10
2023-05-07T03:08:55.280Z,4.30
2023-05-07T03:09:55.252Z,4.40
2023-05-07T03:10:55.225Z,4.20
2023-05-07T03:11:55.203Z,3.90
2023-05-07T03:12:55.233Z,4.00
2023-05-07T03:13:55.149Z,4.20
2023-05-07T03:14:55.119Z,4.40
2023-05-07T03:15:55.112Z,4.50
2023-05-07T03:16:55.073Z,4.40
2023-05-07T03:17:55.061Z,4.60
2023-05-07T03:18:55.045Z,4.30
2023-05-07T03:19:55.125Z,4.80
2023-05-07T03:20:54.996Z,7.00
2023-05-07T03:21:54.948Z,8.10
2023-05-07T03:22:54.909Z,12.50
2023-05-07T03:23:54.892Z,12.70
2023-05-07T03:24:54.869Z,9.40
2023-05-07T03:25:54.834Z,9.70
2023-05-07T03:26:54.805Z,8.50
2023-05-07T03:27:54.777Z,6.20
2023-05-07T03:28:54.756Z,4.90
2023-05-07T03:29:54.727Z,5.00
2023-05-07T03:30:54.707Z,7.30
2023-05-07T03:31:54.746Z,5.90
2023-05-07T03:32:54.690Z,4.80
2023-05-07T03:33:54.625Z,4.20
2023-05-07T03:34:54.617Z,5.60
2023-05-07T03:35:54.606Z,6.90
2023-05-07T03:36:54.548Z,6.70
2023-05-07T03:37:54.519Z,5.60
2023-05-07T03:38:54.490Z,8.30
2023-05-07T03:39:54.464Z,8.20
2023-05-07T03:40:54.443Z,7.20
2023-05-07T03:41:54.408Z,6.90
2023-05-07T03:42:54.383Z,7.00
2023-05-07T03:43:54.358Z,6.50
2023-05-07T03:44:54.343Z,6.20
2023-05-07T03:45:54.327Z,5.40
2023-05-07T03:46:54.277Z,5.70
2023-05-07T03:47:54.291Z,5.20
2023-05-07T03:48:54.226Z,5.10
2023-05-07T03:49:54.204Z,5.60
2023-05-07T03:50:54.175Z,5.80
2023-05-07T03:51:54.167Z,5.70
2023-05-07T03:52:54.123Z,5.90
2023-05-07T03:53:54.126Z,5.60
2023-05-07T03:54:54.070Z,6.30
2023-05-07T03:55:54.043Z,6.10
2023-05-07T03:56:54.017Z,6.40
2023-05-07T03:57:53.990Z,5.40
2023-05-07T03:58:53.969Z,5.00
2023-05-07T03:59:53.935Z,4.60
2023-05-07T04:00:53.917Z,4.10
2023-05-07T04:01:53.916Z,4.20
2023-05-07T04:02:53.934Z,3.90
2023-05-07T04:03:53.940Z,3.40
2023-05-07T04:04:53.809Z,3.50
2023-05-07T04:05:53.782Z,3.80
2023-05-07T04:06:53.757Z,3.90
2023-05-07T04:07:53.817Z,3.70
2023-05-07T04:08:53.708Z,3.70
2023-05-07T04:09:53.675Z,3.60
2023-05-07T04:10:53.650Z,3.70
2023-05-07T04:11:53.626Z,3.50
2023-05-07T04:12:53.630Z,4.30
2023-05-07T04:13:53.574Z,4.90
2023-05-07T04:14:53.555Z,4.80
2023-05-07T04:15:53.521Z,4.20
2023-05-07T04:16:53.545Z,4.30
2023-05-07T04:17:53.525Z,4.70
2023-05-07T04:18:53.440Z,4.40
2023-05-07T04:19:53.412Z,4.60
2023-05-07T04:20:53.398Z,4.10
2023-05-07T04:21:53.361Z,4.10
2023-05-07T04:22:53.336Z,4.40
2023-05-07T04:23:53.326Z,4.10
2023-05-07T04:24:53.283Z,3.80
2023-05-07T04:25:53.265Z,3.50
2023-05-07T04:26:53.230Z,3.50
2023-05-07T04:27:53.427Z,3.80
2023-05-07T04:28:53.176Z,3.70
2023-05-07T04:29:53.149Z,4.10
2023-05-07T04:30:53.131Z,4.00
2023-05-07T04:31:53.169Z,3.70
2023-05-07T04:32:53.087Z,3.80
2023-05-07T04:33:53.048Z,4.10
2023-05-07T04:34:53.026Z,4.30
2023-05-07T04:35:52.993Z,3.90
2023-05-07T04:36:52.965Z,3.60
2023-05-07T04:37:52.937Z,3.50
2023-05-07T04:38:52.913Z,3.60
2023-05-07T04:39:52.977Z,4.00
2023-05-07T04:40:52.861Z,3.80
2023-05-07T04:41:52.834Z,3.50
2023-05-07T04:42:52.810Z,3.60
2023-05-07T04:43:52.779Z,3.30
2023-05-07T04:44:52.756Z,3.40
2023-05-07T04:45:52.887Z,3.60
2023-05-07T04:46:52.719Z,3.70
2023-05-07T04:47:52.696Z,3.60
2023-05-07T04:48:52.653Z,3.80
2023-05-07T04:49:52.631Z,3.60
2023-05-07T04:50:52.630Z,3.90
2023-05-07T04:51:52.573Z,3.70
2023-05-07T04:52:52.555Z,3.90
2023-05-07T04:53:52.518Z,4.00
2023-05-07T04:54:52.495Z,4.40
2023-05-07T04:55:52.635Z,4.10
2023-05-07T04:56:52.452Z,3.90
2023-05-07T04:57:52.421Z,4.20
2023-05-07T04:58:52.392Z,3.90
2023-05-07T04:59:52.368Z,4.40
2023-05-07T05:00:52.354Z,4.20
2023-05-07T05:01:52.472Z,4.40
2023-05-07T05:02:52.353Z,4.20
2023-05-07T05:03:52.284Z,4.50
2023-05-07T05:04:52.250Z,4.40
2023-05-07T05:05:52.231Z,4.40
2023-05-07T05:06:52.190Z,4.60
2023-05-07T05:07:52.171Z,4.30
2023-05-07T05:08:52.149Z,4.30
2023-05-07T05:09:52.119Z,4.60
2023-05-07T05:10:52.089Z,4.60
2023-05-07T05:11:52.082Z,4.50
2023-05-07T05:12:52.071Z,4.40
2023-05-07T05:13:52.015Z,4.70
2023-05-07T05:14:51.996Z,4.60
2023-05-07T05:15:51.974Z,4.20
2023-05-07T05:16:51.938Z,4.50
2023-05-07T05:17:51.927Z,4.40
2023-05-07T05:18:51.887Z,4.40
2023-05-07T05:19:51.863Z,4.50
2023-05-07T05:20:51.839Z,4.20
2023-05-07T05:21:51.810Z,3.90
2023-05-07T05:22:51.789Z,4.40
2023-05-07T05:23:51.759Z,4.40
2023-05-07T05:24:51.734Z,4.70
2023-05-07T05:25:51.708Z,4.10
2023-05-07T05:26:51.687Z,3.90
2023-05-07T05:27:51.750Z,4.50
2023-05-07T05:28:51.631Z,3.80
2023-05-07T05:29:51.608Z,4.30
2023-05-07T05:30:51.585Z,3.90
2023-05-07T05:31:51.644Z,4.20
2023-05-07T05:32:51.638Z,3.90
2023-05-07T05:33:51.509Z,4.00
2023-05-07T05:34:51.495Z,3.80
2023-05-07T05:35:51.460Z,4.10
2023-05-07T05:36:51.436Z,3.80
2023-05-07T05:37:51.406Z,3.90
2023-05-07T05:38:51.409Z,4.00
2023-05-07T05:39:51.363Z,3.90
2023-05-07T05:40:51.347Z,4.20
2023-05-07T05:41:51.304Z,4.10
2023-05-07T05:42:51.289Z,4.10
2023-05-07T05:43:51.392Z,3.90
2023-05-07T05:44:51.235Z,4.10
2023-05-07T05:45:51.209Z,4.20
2023-05-07T05:46:51.391Z,4.00
2023-05-07T05:47:51.182Z,3.70
2023-05-07T05:48:51.139Z,3.70
2023-05-07T05:49:51.134Z,3.80
2023-05-07T05:50:51.084Z,3.80
2023-05-07T05:51:51.061Z,4.10
2023-05-07T05:52:51.034Z,3.80
2023-05-07T05:53:51.012Z,3.90
2023-05-07T05:54:50.981Z,3.50
2023-05-07T05:55:50.969Z,3.60
2023-05-07T05:56:50.933Z,3.50
2023-05-07T05:57:50.910Z,3.70
2023-05-07T05:58:50.931Z,3.20
2023-05-07T05:59:50.880Z,3.80
2023-05-07T06:00:50.834Z,3.30
2023-05-07T06:01:50.881Z,3.50
2023-05-07T06:02:50.840Z,3.50
2023-05-07T06:03:50.767Z,3.30
2023-05-07T06:04:50.745Z,3.20
2023-05-07T06:05:50.711Z,3.60
2023-05-07T06:06:50.686Z,3.60
2023-05-07T06:07:50.657Z,3.50
2023-05-07T06:08:50.639Z,3.20
2023-05-07T06:09:50.636Z,3.30
2023-05-07T06:10:50.587Z,3.20
2023-05-07T06:11:50.562Z,3.70
2023-05-07T06:12:50.578Z,3.30
2023-05-07T06:13:50.511Z,3.30
2023-05-07T06:14:50.491Z,3.20
2023-05-07T06:15:50.481Z,3.40
2023-05-07T06:16:50.473Z,3.60
2023-05-07T06:17:50.511Z,3.40
2023-05-07T06:18:50.386Z,3.10
2023-05-07T06:19:50.359Z,3.60
2023-05-07T06:20:50.335Z,3.50
2023-05-07T06:21:50.310Z,3.80
2023-05-07T06:22:50.290Z,3.90
2023-05-07T06:23:50.271Z,3.50
2023-05-07T06:24:50.238Z,3.90
2023-05-07T06:25:50.219Z,3.40
2023-05-07T06:26:50.186Z,4.20
2023-05-07T06:27:50.159Z,4.00
2023-05-07T06:28:50.140Z,3.70
2023-05-07T06:29:50.111Z,3.80
2023-05-07T06:30:50.087Z,3.60
2023-05-07T06:31:50.184Z,3.70
2023-05-07T06:32:50.112Z,3.40
2023-05-07T06:33:50.008Z,3.90
2023-05-07T06:34:49.986Z,3.90
2023-05-07T06:35:49.960Z,4.00
2023-05-07T06:36:49.936Z,4.00
2023-05-07T06:37:49.913Z,4.30
2023-05-07T06:38:49.894Z,3.50
2023-05-07T06:39:49.879Z,3.90
2023-05-07T06:40:49.835Z,3.90
2023-05-07T06:41:49.817Z,3.90
2023-05-07T06:42:49.800Z,4.20
2023-05-07T06:43:49.766Z,4.10
2023-05-07T06:44:49.736Z,3.80
2023-05-07T06:45:49.737Z,3.90
2023-05-07T06:46:49.731Z,4.10
2023-05-07T06:47:49.864Z,3.80
2023-05-07T06:48:49.633Z,3.90
2023-05-07T06:49:49.608Z,4.10
2023-05-07T06:50:49.584Z,3.80
2023-05-07T06:51:49.560Z,3.70
2023-05-07T06:52:49.532Z,3.90
2023-05-07T06:53:49.508Z,3.90
2023-05-07T06:54:49.483Z,4.10
2023-05-07T06:55:49.457Z,4.10
2023-05-07T06:56:49.434Z,4.20
2023-05-07T06:57:49.428Z,4.00
2023-05-07T06:58:49.384Z,4.20
2023-05-07T06:59:49.360Z,4.40
2023-05-07T07:00:49.333Z,5.00
2023-05-07T07:01:49.363Z,4.90
2023-05-07T07:02:49.318Z,4.00
2023-05-07T07:03:49.347Z,4.40
2023-05-07T07:04:49.277Z,4.30
2023-05-07T07:05:49.209Z,4.10
2023-05-07T07:06:49.184Z,4.30
2023-05-07T07:07:49.155Z,3.60
2023-05-07T07:08:49.180Z,4.10
2023-05-07T07:09:49.106Z,4.50
2023-05-07T07:10:49.079Z,3.70
2023-05-07T07:11:49.062Z,4.10
2023-05-07T07:12:49.074Z,4.20
2023-05-07T07:13:49.007Z,4.20
2023-05-07T07:14:48.979Z,3.40
2023-05-07T07:15:48.998Z,3.30
2023-05-07T07:16:48.937Z,3.40
2023-05-07T07:17:48.933Z,3.40
2023-05-07T07:18:48.877Z,3.70
2023-05-07T07:19:48.877Z,3.50
2023-05-07T07:20:48.845Z,3.60
2023-05-07T07:21:48.822Z,3.40
2023-05-07T07:22:48.778Z,3.30
2023-05-07T07:23:48.765Z,3.10
2023-05-07T07:24:48.743Z,3.40
2023-05-07T07:25:48.709Z,3.50
2023-05-07T07:26:48.685Z,3.10
2023-05-07T07:27:48.666Z,3.00
2023-05-07T07:28:48.629Z,2.80
2023-05-07T07:29:48.610Z,2.90
2023-05-07T07:30:48.582Z,3.00
2023-05-07T07:31:48.704Z,2.70
2023-05-07T07:32:48.591Z,2.60
2023-05-07T07:33:48.905Z,2.60
2023-05-07T07:34:48.484Z,2.60
2023-05-07T07:35:48.729Z,2.70
2023-05-07T07:36:48.436Z,2.60
2023-05-07T07:37:48.414Z,2.70
2023-05-07T07:38:48.388Z,2.80
2023-05-07T07:39:48.384Z,2.70
2023-05-07T07:40:48.349Z,2.70
2023-05-07T07:41:48.368Z,2.60
2023-05-07T07:42:48.298Z,2.80
2023-05-07T07:43:49.804Z,2.50
2023-05-07T07:44:48.248Z,2.40
2023-05-07T07:45:48.221Z,2.70
2023-05-07T07:46:48.295Z,2.70
2023-05-07T07:47:48.191Z,2.60
2023-05-07T07:48:48.146Z,2.80
2023-05-07T07:49:48.131Z,2.60
2023-05-07T07:50:48.210Z,3.10
2023-05-07T07:51:48.144Z,2.80
2023-05-07T07:52:48.050Z,2.70
2023-05-07T07:53:48.027Z,2.60
2023-05-07T07:54:48.000Z,2.80
2023-05-07T07:55:47.979Z,2.70
2023-05-07T07:56:47.955Z,2.70
2023-05-07T07:57:47.931Z,2.80
2023-05-07T07:58:47.910Z,2.60
2023-05-07T07:59:47.887Z,2.60
2023-05-07T08:00:47.873Z,2.60
2023-05-07T08:01:47.912Z,2.70
2023-05-07T08:02:47.959Z,2.70
2023-05-07T08:03:47.855Z,2.60
2023-05-07T08:04:47.776Z,2.60
2023-05-07T08:05:47.748Z,2.80
2023-05-07T08:06:47.772Z,2.50
2023-05-07T08:07:47.784Z,2.70
2023-05-07T08:08:47.675Z,2.70
2023-05-07T08:09:47.650Z,2.70
2023-05-07T08:10:47.626Z,2.60
2023-05-07T08:11:47.604Z,2.80
2023-05-07T08:12:47.602Z,2.50
2023-05-07T08:13:47.560Z,2.60
2023-05-07T08:14:47.535Z,3.00
2023-05-07T08:15:47.518Z,2.50
2023-05-07T08:16:47.558Z,2.40
2023-05-07T08:17:47.601Z,2.70
2023-05-07T08:18:47.443Z,2.50
2023-05-07T08:19:47.420Z,2.60
2023-05-07T08:20:47.395Z,2.60
2023-05-07T08:21:47.376Z,2.50
2023-05-07T08:22:47.406Z,2.50
2023-05-07T08:23:47.422Z,2.20
2023-05-07T08:24:47.374Z,2.80
2023-05-07T08:25:47.315Z,2.70
2023-05-07T08:26:47.727Z,2.50
2023-05-07T08:27:47.374Z,3.00
2023-05-07T08:28:47.229Z,2.60
2023-05-07T08:29:47.214Z,2.40
2023-05-07T08:30:47.200Z,2.30
2023-05-07T08:31:47.150Z,2.30
2023-05-07T08:32:47.185Z,2.40
2023-05-07T08:33:47.105Z,2.30
2023-05-07T08:34:47.080Z,2.50
2023-05-07T08:35:47.058Z,2.50
2023-05-07T08:36:47.036Z,2.30
2023-05-07T08:37:47.014Z,2.70
2023-05-07T08:38:47.013Z,2.60
2023-05-07T08:39:47.005Z,2.70
2023-05-07T08:40:46.945Z,2.60
2023-05-07T08:41:46.927Z,2.40
2023-05-07T08:42:46.901Z,2.50
2023-05-07T08:43:46.878Z,2.70
2023-05-07T08:44:46.855Z,2.60
2023-05-07T08:45:46.861Z,3.10
2023-05-07T08:46:46.906Z,2.90
2023-05-07T08:47:46.864Z,3.00
2023-05-07T08:48:46.771Z,2.10
2023-05-07T08:49:46.740Z,2.40
2023-05-07T08:50:46.715Z,2.40
2023-05-07T08:51:46.707Z,2.60
2023-05-07T08:52:46.690Z,2.20
2023-05-07T08:53:46.648Z,2.30
2023-05-07T08:54:46.625Z,2.30
2023-05-07T08:55:46.624Z,2.30
2023-05-07T08:56:46.577Z,2.60
2023-05-07T08:57:46.563Z,2.30
2023-05-07T08:58:46.544Z,2.60
2023-05-07T08:59:46.518Z,2.60
2023-05-07T09:00:46.490Z,2.30
2023-05-07T09:01:46.508Z,2.40
2023-05-07T09:02:46.471Z,2.40
2023-05-07T09:03:46.476Z,2.60
2023-05-07T09:04:46.420Z,2.70
2023-05-07T09:05:46.382Z,2.70
2023-05-07T09:06:46.368Z,2.60
2023-05-07T09:07:46.336Z,2.60
2023-05-07T09:08:46.311Z,2.50
2023-05-07T09:09:46.297Z,2.70
2023-05-07T09:10:46.270Z,2.50
2023-05-07T09:11:46.338Z,2.90
2023-05-07T09:12:46.249Z,2.50
2023-05-07T09:13:46.207Z,2.60
2023-05-07T09:14:46.182Z,2.80
2023-05-07T09:15:46.202Z,2.70
2023-05-07T09:16:46.177Z,2.90
2023-05-07T09:17:46.154Z,3.10
2023-05-07T09:18:46.130Z,2.70
2023-05-07T09:19:46.076Z,3.10
2023-05-07T09:20:46.095Z,3.00
2023-05-07T09:21:46.048Z,3.30
2023-05-07T09:22:46.016Z,3.40
2023-05-07T09:23:46.000Z,3.10
2023-05-07T09:24:46.019Z,3.00
2023-05-07T09:25:45.950Z,3.20
2023-05-07T09:26:45.930Z,2.90
2023-05-07T09:27:46.000Z,3.00
2023-05-07T09:28:45.885Z,3.10
2023-05-07T09:29:45.878Z,3.10
2023-05-07T09:30:45.843Z,3.00
2023-05-07T09:31:45.849Z,3.00
2023-05-07T09:32:45.862Z,2.80
2023-05-07T09:33:45.788Z,2.80
2023-05-07T09:34:45.754Z,2.70
2023-05-07T09:35:45.741Z,3.00
2023-05-07T09:36:45.718Z,2.60
2023-05-07T09:37:45.695Z,2.50
2023-05-07T09:38:45.683Z,2.30
2023-05-07T09:39:45.669Z,2.60
2023-05-07T09:40:45.635Z,2.50
2023-05-07T09:41:45.624Z,2.50
2023-05-07T09:42:45.593Z,2.50
2023-05-07T09:43:45.718Z,2.50
2023-05-07T09:44:45.553Z,2.80
2023-05-07T09:45:45.590Z,2.70
2023-05-07T09:46:45.509Z,2.70
2023-05-07T09:47:45.552Z,2.70
2023-05-07T09:48:45.491Z,2.70
2023-05-07T09:49:45.450Z,3.00
2023-05-07T09:50:45.420Z,2.60
2023-05-07T09:51:45.401Z,2.60
2023-05-07T09:52:45.385Z,2.40
2023-05-07T09:53:45.360Z,2.50
2023-05-07T09:54:45.352Z,2.70
2023-05-07T09:55:45.318Z,2.70
2023-05-07T09:56:45.323Z,2.60
2023-05-07T09:57:45.293Z,2.50
2023-05-07T09:58:45.255Z,2.60
2023-05-07T09:59:45.402Z,2.60
2023-05-07T10:00:45.236Z,2.60
2023-05-07T10:01:45.198Z,2.70
2023-05-07T10:02:45.225Z,3.30
2023-05-07T10:03:45.221Z,3.00
2023-05-07T10:04:45.130Z,2.70
2023-05-07T10:05:45.121Z,2.80
2023-05-07T10:06:45.090Z,2.70
2023-05-07T10:07:45.072Z,2.50
2023-05-07T10:08:45.063Z,2.90
2023-05-07T10:09:45.027Z,2.60
2023-05-07T10:10:45.008Z,2.60
2023-05-07T10:11:44.993Z,2.80
2023-05-07T10:12:44.994Z,2.70
2023-05-07T10:13:44.949Z,2.60
2023-05-07T10:14:44.924Z,2.70
2023-05-07T10:15:45.061Z,2.50
2023-05-07T10:16:44.885Z,2.90
2023-05-07T10:17:44.963Z,2.60
2023-05-07T10:18:44.933Z,2.50
2023-05-07T10:19:44.825Z,2.90
2023-05-07T10:20:44.802Z,2.70
2023-05-07T10:21:44.785Z,2.60
2023-05-07T10:22:44.769Z,2.60
2023-05-07T10:23:44.745Z,3.00
2023-05-07T10:24:44.728Z,2.40
2023-05-07T10:25:44.709Z,2.80
2023-05-07T10:26:44.680Z,2.50
2023-05-07T10:27:44.664Z,2.80
2023-05-07T10:28:44.657Z,2.70
2023-05-07T10:29:44.626Z,3.10
2023-05-07T10:30:44.624Z,2.70
2023-05-07T10:31:44.630Z,3.00
2023-05-07T10:32:44.607Z,2.70
2023-05-07T10:33:44.549Z,2.70
2023-05-07T10:34:44.522Z,2.90
2023-05-07T10:35:44.503Z,3.00
2023-05-07T10:36:44.482Z,2.60
2023-05-07T10:37:44.466Z,2.70
2023-05-07T10:38:44.449Z,2.70
2023-05-07T10:39:44.419Z,2.50
2023-05-07T10:40:47.726Z,2.80
2023-05-07T10:41:44.380Z,2.60
2023-05-07T10:42:44.363Z,3.20
2023-05-07T10:43:44.340Z,2.80
2023-05-07T10:44:44.325Z,2.70
2023-05-07T10:45:44.304Z,2.70
2023-05-07T10:46:44.419Z,2.60
2023-05-07T10:47:44.372Z,2.80
2023-05-07T10:48:44.240Z,2.60
2023-05-07T10:49:44.221Z,2.50
2023-05-07T10:50:44.226Z,2.60
2023-05-07T10:51:44.181Z,2.70
2023-05-07T10:52:44.158Z,2.50
2023-05-07T10:53:44.141Z,2.50
2023-05-07T10:54:44.119Z,2.70
2023-05-07T10:55:44.104Z,2.50
2023-05-07T10:56:44.117Z,2.70
2023-05-07T10:57:44.061Z,2.40
2023-05-07T10:58:44.040Z,2.30
2023-05-07T10:59:44.023Z,2.70
2023-05-07T11:00:44.015Z,2.60
2023-05-07T11:01:44.022Z,2.40
2023-05-07T11:02:44.002Z,2.70
2023-05-07T11:03:44.069Z,2.70
2023-05-07T11:04:43.977Z,2.60
2023-05-07T11:05:44.020Z,2.60
2023-05-07T11:06:43.878Z,2.50
2023-05-07T11:07:43.856Z,3.00
2023-05-07T11:08:43.842Z,2.50
2023-05-07T11:09:43.815Z,2.50
2023-05-07T11:10:43.796Z,2.40
2023-05-07T11:11:43.790Z,2.40
2023-05-07T11:12:43.804Z,2.70
2023-05-07T11:13:43.733Z,2.30
2023-05-07T11:14:43.712Z,2.50
2023-05-07T11:15:43.693Z,2.60
2023-05-07T11:16:43.714Z,2.90
2023-05-07T11:17:43.686Z,2.70
2023-05-07T11:18:43.636Z,2.50
2023-05-07T11:19:43.640Z,2.50
2023-05-07T11:20:43.600Z,2.40
2023-05-07T11:21:43.607Z,3.10
2023-05-07T11:22:43.569Z,2.70
2023-05-07T11:23:43.537Z,2.40
2023-05-07T11:24:43.532Z,2.40
2023-05-07T11:25:43.509Z,2.60
2023-05-07T11:26:43.489Z,2.90
2023-05-07T11:27:43.458Z,3.00
2023-05-07T11:28:43.444Z,2.80
2023-05-07T11:29:43.430Z,2.80
2023-05-07T11:30:43.404Z,2.80
2023-05-07T11:31:43.481Z,2.60
2023-05-07T11:32:43.377Z,2.70
2023-05-07T11:33:43.346Z,2.60
2023-05-07T11:34:43.331Z,2.50
2023-05-07T11:35:43.406Z,2.60
2023-05-07T11:36:43.291Z,2.60
2023-05-07T11:37:43.272Z,2.80
2023-05-07T11:38:43.255Z,2.90
2023-05-07T11:39:43.238Z,2.60
2023-05-07T11:40:43.213Z,2.60
2023-05-07T11:41:43.198Z,3.20
2023-05-07T11:42:43.184Z,3.10
2023-05-07T11:43:43.156Z,3.00
2023-05-07T11:44:43.149Z,3.00
2023-05-07T11:45:43.130Z,3.00
2023-05-07T11:46:43.100Z,3.10
2023-05-07T11:47:43.160Z,3.00
2023-05-07T11:48:43.070Z,2.90
2023-05-07T11:49:43.043Z,3.20
2023-05-07T11:50:43.028Z,2.90
2023-05-07T11:51:43.030Z,3.00
2023-05-07T11:52:42.989Z,3.00
2023-05-07T11:53:42.968Z,2.80
2023-05-07T11:54:42.958Z,2.60
2023-05-07T11:55:42.930Z,2.60
2023-05-07T11:56:42.925Z,2.60
2023-05-07T11:57:42.893Z,2.60
2023-05-07T11:58:42.872Z,2.80
2023-05-07T11:59:42.853Z,2.70
2023-05-07T12:00:42.836Z,2.80
2023-05-07T12:01:42.827Z,2.60
2023-05-07T12:02:42.855Z,2.40
2023-05-07T12:03:42.860Z,2.80
2023-05-07T12:04:42.804Z,3.00
2023-05-07T12:05:42.750Z,2.80
2023-05-07T12:06:42.720Z,2.50
2023-05-07T12:07:42.728Z,2.70
2023-05-07T12:08:42.761Z,3.00
2023-05-07T12:09:42.668Z,2.80
2023-05-07T12:10:42.651Z,2.50
2023-05-07T12:11:42.629Z,2.60
2023-05-07T12:12:42.652Z,2.80
2023-05-07T12:13:42.596Z,2.50
2023-05-07T12:14:42.588Z,2.90
2023-05-07T12:15:42.562Z,2.60
2023-05-07T12:16:42.613Z,2.60
2023-05-07T12:17:42.563Z,2.70
2023-05-07T12:18:42.508Z,2.90
2023-05-07T12:19:42.478Z,2.80
2023-05-07T12:20:42.463Z,3.00
2023-05-07T12:21:42.444Z,2.60
2023-05-07T12:22:42.430Z,3.00
2023-05-07T12:23:42.451Z,2.80
2023-05-07T12:24:42.417Z,2.80
2023-05-07T12:25:42.372Z,3.10
2023-05-07T12:26:42.352Z,2.70
2023-05-07T12:27:42.346Z,2.90
2023-05-07T12:28:42.328Z,3.20
2023-05-07T12:29:42.297Z,2.90
2023-05-07T12:30:42.282Z,2.60
2023-05-07T12:31:42.303Z,2.60
2023-05-07T12:32:42.305Z,2.70
2023-05-07T12:33:42.221Z,2.70
2023-05-07T12:34:45.377Z,2.90
2023-05-07T12:35:42.201Z,2.60
2023-05-07T12:36:42.177Z,2.50
2023-05-07T12:37:42.154Z,3.00
2023-05-07T12:38:42.193Z,2.70
2023-05-07T12:39:42.267Z,2.70
2023-05-07T12:40:42.105Z,2.60
2023-05-07T12:41:42.075Z,2.80
2023-05-07T12:42:42.057Z,2.80
2023-05-07T12:43:42.044Z,2.60
2023-05-07T12:44:42.035Z,3.00
2023-05-07T12:45:42.000Z,2.90
2023-05-07T12:46:42.032Z,2.50
2023-05-07T12:47:42.005Z,2.60
2023-05-07T12:48:41.948Z,2.50
2023-05-07T12:49:41.937Z,2.60
2023-05-07T12:50:41.910Z,2.70
2023-05-07T12:51:41.902Z,2.50
2023-05-07T12:52:41.875Z,2.90
2023-05-07T12:53:41.853Z,2.80
2023-05-07T12:54:41.840Z,2.90
2023-05-07T12:55:41.842Z,3.10
2023-05-07T12:56:41.809Z,2.80
2023-05-07T12:57:41.808Z,3.10
2023-05-07T12:58:41.760Z,3.00
2023-05-07T12:59:41.760Z,3.10
2023-05-07T13:00:41.724Z,3.30
2023-05-07T13:01:41.729Z,3.20
2023-05-07T13:02:41.828Z,3.40
2023-05-07T13:03:41.766Z,2.80
2023-05-07T13:04:41.662Z,3.70
2023-05-07T13:05:41.627Z,3.40
2023-05-07T13:06:41.612Z,3.20
2023-05-07T13:07:41.600Z,3.40
2023-05-07T13:08:41.726Z,3.50
2023-05-07T13:09:41.554Z,3.20
2023-05-07T13:10:41.536Z,3.10
2023-05-07T13:11:41.539Z,3.10
2023-05-07T13:12:41.558Z,3.00
2023-05-07T13:13:41.485Z,2.90
2023-05-07T13:14:41.460Z,3.00
2023-05-07T13:15:41.441Z,3.30
2023-05-07T13:16:41.461Z,3.20
2023-05-07T13:17:41.559Z,2.90